Latest Weather Observations for Nerriga

IDN60801

Issued at 6:05 pm EDT Friday 24 October 2014 (issued every 30 minutes, with the page automatically refreshed every 10 minutes)

About weather observations | Map of weather stations | Latest weather observations for NSW | Other Formats
Station Details ID: 069128 Name: NERRIGA AWS Lat: -35.11 Lon: 150.08 Height: 622.0 m
Data from the previous 72 hours. | See also: Recent months at Nerriga
Date/Time
EDT
Temp
°C
App
Temp
°C
Dew
Point
Rel
Hum
%
Delta-T
°C
Wind Press
QNH
hPa
Press
MSL
hPa
Rain
since 9 am
mm
Dir
 
Spd
km/h
Gust
km/h
Spd
kts
Gust
kts
24/06:00pm 25.4 24.9 12.6 45 7.6 NNW 7 9 4 5 1013.4 1012.6 0.0
24/05:30pm 25.7 24.1 12.9 45 7.6 NNW 13 20 7 11 1013.6 1012.7 0.0
24/05:00pm 26.4 23.4 12.1 41 8.5 NNW 19 32 10 17 1013.7 1012.8 0.0
24/04:30pm 28.0 24.7 12.8 39 9.1 NW 22 39 12 21 1013.6 1012.7 0.0
24/04:00pm 27.8 23.9 12.2 38 9.3 WNW 24 35 13 19 1013.9 1013.0 0.0
24/03:30pm 27.7 22.3 12.1 38 9.3 NW 32 43 17 23 1014.1 1013.2 0.0
24/03:24pm 27.9 22.8 11.9 37 9.5 WNW 30 41 16 22 1014.2 1013.3 0.0
24/03:00pm 27.4 20.9 11.8 38 9.2 NNW 37 52 20 28 1014.3 1013.5 0.0
24/02:41pm 27.8 22.3 11.8 37 9.5 NW 32 43 17 23 1014.5 1013.7 0.0
24/02:30pm 26.6 24.9 13.7 45 7.8 N 15 24 8 13 1014.8 1014.0 0.0
24/02:00pm 27.2 24.6 13.9 44 8.1 N 20 28 11 15 1015.4 1014.5 0.0
24/01:30pm 26.3 23.7 13.1 44 7.9 N 19 30 10 16 1015.9 1015.1 0.0
24/01:00pm 25.4 22.9 12.3 44 7.7 N 17 32 9 17 1016.5 1015.7 0.0
24/12:30pm 25.3 22.5 13.2 47 7.3 N 20 28 11 15 1017.0 1016.1 0.0
24/12:00pm 24.8 22.8 12.7 47 7.2 N 15 22 8 12 1017.5 1016.7 0.0
24/11:30am 23.3 20.4 12.3 50 6.4 N 19 30 10 16 1018.3 1017.5 0.0
24/11:00am 22.9 21.0 13.1 54 5.8 N 15 22 8 12 1019.0 1018.2 0.0
24/10:30am 21.6 20.0 14.0 62 4.5 N 15 22 8 12 1019.5 1018.7 0.0
24/10:00am 20.1 19.2 13.6 66 3.8 NNW 11 13 6 7 1019.9 1019.2 0.0
24/09:30am 18.7 18.5 14.6 77 2.4 N 9 11 5 6 1020.0 1019.3 0.0
24/09:00am 16.6 16.4 13.7 83 1.7 N 7 11 4 6 1020.1 1019.4 4.6
24/08:30am 15.2 15.2 13.7 91 0.9 N 6 9 3 5 1020.6 1019.8 4.6
24/08:00am 14.1 14.5 13.8 98 0.2 N 4 7 2 4 1020.8 1020.0 4.6
24/07:30am 13.1 14.0 12.8 98 0.2 CALM 0 2 0 1 1020.7 1019.9 4.6
24/07:00am 11.9 12.3 11.4 97 0.3 CALM 0 4 0 2 1020.4 1019.6 4.6
24/06:30am 12.4 12.1 11.5 94 0.5 N 4 6 2 3 1020.2 1019.5 4.6
24/06:00am 12.8 12.3 11.9 94 0.5 N 6 9 3 5 1019.8 1019.1 4.6
24/05:30am 13.8 11.4 11.3 85 1.4 NNE 15 22 8 12 1019.5 1018.7 4.6
24/05:00am 13.2 11.4 12.1 93 0.6 NNE 13 20 7 11 1019.5 1018.7 4.6
24/04:30am 13.1 10.7 12.8 98 0.2 E 17 20 9 11 1019.9 1019.2 4.6
24/04:00am 13.4 12.3 13.1 98 0.2 SW 11 15 6 8 1021.9 1021.2 4.4
24/03:30am 13.3 12.2 13.0 98 0.2 WSW 11 15 6 8 1021.3 1020.6 4.0
24/03:00am 13.5 13.4 13.2 98 0.2 SE 6 13 3 7 1021.3 1020.6 3.4
24/02:30am 13.9 12.8 13.1 95 0.5 S 11 13 6 7 1022.4 1021.6 3.0
24/02:00am 14.0 12.7 12.4 90 0.9 WNW 11 17 6 9 1022.2 1021.4 2.8
24/01:30am 14.2 13.0 10.4 78 2.1 ENE 7 11 4 6 1020.6 1019.8 2.8
24/01:00am 14.3 14.0 11.5 83 1.5 ENE 4 7 2 4 1020.6 1019.8 2.8
24/12:30am 13.7 12.6 11.9 89 1.0 E 9 11 5 6 1020.8 1020.0 2.8
24/12:00am 14.6 13.4 12.8 89 1.0 SSE 11 20 6 11 1021.0 1020.2 2.8
 
Date/Time
EDT
Temp
°C
App
Temp
°C
Dew
Point
Rel
Hum
%
Delta-T
°C
Wind Press
QNH
hPa
Press
MSL
hPa
Rain
since 9 am
mm
Dir
 
Spd
km/h
Gust
km/h
Spd
kts
Gust
kts
23/11:35pm 14.3 10.3 14.0 98 0.2 NNE 28 35 15 19 1020.5 1019.7 2.6
23/11:30pm 14.6 13.9 14.3 98 0.2 WSW 11 17 6 9 1022.7 1022.0 2.2
23/11:00pm 14.8 13.0 14.5 98 0.2 SE 17 22 9 12 1023.0 1022.3 1.4
23/10:30pm 15.7 14.7 13.4 86 1.3 SSW 11 20 6 11 1023.1 1022.4 1.0
23/10:00pm 16.3 14.1 13.4 83 1.7 ENE 17 22 9 12 1021.6 1020.9 1.0
23/09:30pm 16.4 15.9 14.8 90 0.9 ESE 11 17 6 9 1022.7 1022.0 1.0
23/09:00pm 16.5 15.3 15.0 91 0.9 SE 15 19 8 10 1021.9 1021.2 1.0
23/08:30pm 17.1 18.6 14.6 85 1.5 CALM 0 0 0 0 1021.7 1021.0 1.0
23/08:00pm 17.6 17.8 14.7 83 1.7 SE 7 13 4 7 1020.9 1020.1 1.0
23/07:30pm 18.2 17.9 14.5 79 2.2 ESE 9 13 5 7 1020.4 1019.6 1.0
23/07:00pm 19.0 17.7 14.7 76 2.6 ESE 15 20 8 11 1019.8 1019.1 1.0
23/06:30pm 19.7 18.1 12.9 65 4.0 ESE 13 19 7 10 1019.6 1018.8 1.0
23/06:00pm 20.7 20.0 11.3 55 5.3 SE 6 7 3 4 1019.8 1019.1 1.0
23/05:30pm 21.4 20.2 12.8 58 5.0 SE 11 15 6 8 1019.6 1018.8 1.0
23/05:00pm 20.4 20.2 14.7 70 3.4 ESE 9 13 5 7 1019.4 1018.6 1.0
23/04:30pm 19.8 19.4 16.1 79 2.3 E 13 19 7 10 1019.2 1018.4 1.0
23/04:00pm 23.0 20.7 11.7 49 6.5 E 15 20 8 11 1019.0 1018.2 0.0
23/03:30pm 22.9 21.1 11.0 47 6.8 NE 11 15 6 8 1019.1 1018.3 0.0
23/03:00pm 24.0 21.2 9.9 41 7.9 ENE 15 24 8 13 1018.8 1018.0 0.0
23/02:30pm 25.8 23.6 6.4 29 10.4 SW 7 17 4 9 1018.4 1017.7 0.0
23/02:00pm 27.4 25.2 6.2 26 11.4 S 7 9 4 5 1018.5 1017.8 0.0
23/01:30pm 27.3 24.9 4.4 23 11.9 SSE 6 9 3 5 1019.0 1018.2 0.0
23/01:00pm 26.5 23.0 1.0 19 12.4 S 9 19 5 10 1019.2 1018.4 0.0
23/12:30pm 26.6 23.8 3.2 22 11.9 SSW 7 17 4 9 1019.5 1018.7 0.0
23/12:00pm 26.3 23.9 6.9 29 10.5 S 9 17 5 9 1019.7 1018.9 0.0
23/11:30am 25.5 24.1 8.9 35 9.3 NNW 6 9 3 5 1019.9 1019.2 0.0
23/11:00am 23.9 23.8 13.4 51 6.3 W 6 9 3 5 1020.0 1019.3 0.0
23/10:30am 22.6 22.4 13.1 55 5.6 W 6 9 3 5 1020.2 1019.5 0.0
23/10:00am 21.7 21.2 12.5 56 5.4 WNW 7 9 4 5 1020.2 1019.5 0.0
23/09:30am 20.9 20.9 13.6 63 4.3 WNW 6 9 3 5 1020.1 1019.4 0.0
23/09:00am 19.9 19.7 12.9 64 4.1 WNW 6 9 3 5 1020.1 1019.4 0.0
23/08:30am 18.6 20.0 14.5 77 2.4 CALM 0 4 0 2 1020.1 1019.4 0.0
23/08:00am 16.3 16.8 15.0 92 0.8 NW 6 9 3 5 1020.4 1019.6 0.0
23/07:30am 14.0 14.8 13.7 98 0.2 NNW 2 4 1 2 1019.8 1019.1 0.0
23/07:00am 11.9 12.4 11.6 98 0.2 CALM 0 4 0 2 1019.9 1019.2 0.0
23/06:30am 10.8 11.0 10.5 98 0.2 CALM 0 0 0 0 1019.8 1019.1 0.0
23/06:00am 11.3 11.6 11.0 98 0.2 CALM 0 0 0 0 1019.6 1018.8 0.0
23/05:30am 11.4 11.0 11.1 98 0.2 NNW 4 4 2 2 1019.3 1018.5 0.0
23/05:00am 10.8 11.0 10.5 98 0.2 CALM 0 0 0 0 1019.1 1018.3 0.0
23/04:30am 10.6 10.7 10.3 98 0.2 CALM 0 0 0 0 1018.9 1018.1 0.0
23/04:00am 11.6 12.0 11.3 98 0.2 CALM 0 0 0 0 1018.7 1017.9 0.0
23/03:30am 10.7 10.9 10.4 98 0.2 CALM 0 0 0 0 1018.9 1018.1 0.0
23/03:00am 11.6 12.0 11.3 98 0.2 CALM 0 0 0 0 1019.1 1018.3 0.0
23/02:30am 12.3 12.9 12.0 98 0.2 CALM 0 0 0 0 1019.3 1018.5 0.0
23/02:00am 13.2 14.0 12.6 96 0.3 CALM 0 0 0 0 1019.7 1018.9 0.0
23/01:30am 13.1 13.4 12.3 95 0.4 NNW 2 4 1 2 1019.7 1018.9 0.0
23/01:00am 13.3 14.1 12.4 94 0.5 CALM 0 0 0 0 1020.0 1019.3 0.0
23/12:30am 13.2 14.0 12.4 95 0.4 CALM 0 0 0 0 1020.1 1019.4 0.0
23/12:00am 13.4 14.0 12.0 91 0.8 CALM 0 0 0 0 1020.2 1019.5 0.0
 
Date/Time
EDT
Temp
°C
App
Temp
°C
Dew
Point
Rel
Hum
%
Delta-T
°C
Wind Press
QNH
hPa
Press
MSL
hPa
Rain
since 9 am
mm
Dir
 
Spd
km/h
Gust
km/h
Spd
kts
Gust
kts
22/11:30pm 13.8 14.4 12.0 89 1.0 CALM 0 0 0 0 1020.5 1019.7 0.0
22/11:00pm 14.1 14.8 12.1 88 1.1 CALM 0 0 0 0 1020.6 1019.8 0.0
22/10:30pm 14.2 14.6 11.4 83 1.5 CALM 0 0 0 0 1020.6 1019.8 0.0
22/10:00pm 15.1 15.3 11.9 81 1.8 NNW 2 4 1 2 1020.6 1019.8 0.0
22/09:30pm 15.9 16.1 11.7 76 2.3 NNW 2 4 1 2 1020.6 1019.8 0.0
22/09:00pm 17.7 17.9 11.7 68 3.4 NNW 2 6 1 3 1020.6 1019.8 0.0
22/08:30pm 19.1 18.6 12.1 64 4.0 NNW 6 7 3 4 1020.1 1019.4 0.0
22/08:00pm 19.4 18.9 12.7 65 3.9 NNW 7 11 4 6 1020.0 1019.3 0.0
22/07:30pm 19.7 19.2 12.7 64 4.1 NNW 7 9 4 5 1019.9 1019.2 0.0
22/07:00pm 21.3 19.8 13.0 59 4.9 NNW 13 17 7 9 1019.7 1018.9 0.0
22/06:30pm 22.2 20.3 13.0 56 5.4 NNW 15 20 8 11 1019.5 1018.7 0.0
22/06:00pm 23.6 22.1 12.0 48 6.8 WNW 11 15 6 8 1019.4 1018.6 0.0
22/05:30pm 24.2 21.4 10.1 41 8.0 W 15 20 8 11 1019.5 1018.7 0.0
22/05:00pm 24.2 21.5 10.5 42 7.8 W 15 26 8 14 1019.5 1018.7 0.0
22/04:30pm 24.8 23.0 12.1 45 7.5 WNW 13 26 7 14 1019.6 1018.8 0.0
22/04:00pm 24.6 22.1 11.2 43 7.7 NW 15 19 8 10 1019.8 1019.1 0.0
22/03:30pm 24.4 23.5 13.6 51 6.5 NNW 11 24 6 13 1020.2 1019.5 0.0
22/03:00pm 23.9 21.3 13.2 51 6.4 WNW 19 32 10 17 1020.7 1019.9 0.0
22/02:30pm 22.9 20.3 11.9 50 6.4 NW 17 26 9 14 1021.1 1020.3 0.0
22/02:00pm 22.6 19.4 12.0 51 6.1 NW 20 33 11 18 1021.7 1021.0 0.0
22/01:30pm 21.3 20.2 11.9 55 5.4 NNW 9 17 5 9 1022.4 1021.6 0.0
22/01:00pm 20.0 18.4 11.5 58 4.8 N 11 17 6 9 1023.0 1022.3 0.0
22/12:30pm 19.2 18.5 12.0 63 4.1 N 7 19 4 10 1023.6 1022.9 0.0
22/12:00pm 17.6 15.9 10.0 61 4.1 N 9 15 5 8 1024.2 1023.5 0.0
22/11:30am 16.9 15.4 10.5 66 3.5 N 9 15 5 8 1024.8 1024.1 0.0
22/11:00am 15.7 13.9 9.4 66 3.3 N 9 19 5 10 1025.2 1024.5 0.0
22/10:30am 14.3 12.3 8.7 69 2.9 N 9 17 5 9 1025.7 1025.0 0.0
22/10:00am 13.6 10.6 9.1 74 2.3 NNW 15 20 8 11 1026.0 1025.3 0.0
22/09:30am 12.5 9.2 8.2 75 2.2 NNW 15 19 8 10 1026.0 1025.3 0.0
22/09:00am 11.7 8.4 8.2 79 1.8 N 15 22 8 12 1026.1 1025.4 0.0
22/08:30am 10.8 7.8 7.9 82 1.5 N 13 19 7 10 1026.1 1025.4 0.0
22/08:00am 9.8 7.7 8.2 90 0.8 NNE 9 13 5 7 1026.3 1025.6 0.0
22/07:30am 8.2 6.5 7.6 96 0.3 NE 6 6 3 3 1026.4 1025.7 0.0
22/07:00am 7.4 5.6 7.1 98 0.1 NE 6 9 3 5 1026.4 1025.7 0.0
22/06:30am 5.5 3.7 5.2 98 0.1 NE 4 6 2 3 1026.5 1025.8 0.0
22/06:00am 5.6 4.5 5.3 98 0.1 CALM 0 2 0 1 1026.5 1025.8 0.0
22/05:30am 6.0 4.3 5.7 98 0.1 NE 4 6 2 3 1026.3 1025.6 0.0
22/05:00am 7.2 6.4 6.5 95 0.3 CALM 0 4 0 2 1026.6 1025.9 0.0
22/04:30am 7.8 5.8 7.1 95 0.3 ENE 7 9 4 5 1026.5 1025.8 0.0
22/04:00am 8.8 7.1 7.7 93 0.5 ENE 6 7 3 4 1026.8 1026.2 0.0
22/03:30am 8.8 7.5 7.7 93 0.5 ENE 4 6 2 3 1027.4 1026.7 0.0
22/03:00am 8.7 7.4 7.6 93 0.5 ENE 4 6 2 3 1027.7 1027.0 0.0
22/02:30am 8.8 6.1 7.4 91 0.7 ENE 11 15 6 8 1028.1 1027.5 0.0
22/02:00am 9.1 6.4 7.5 90 0.8 ENE 11 15 6 8 1028.4 1027.8 0.0
22/01:30am 8.9 6.5 7.2 89 0.8 NE 9 13 5 7 1028.9 1028.2 0.0
22/01:00am 9.4 6.6 7.0 85 1.2 NE 11 15 6 8 1029.3 1028.6 0.0
22/12:30am 9.9 7.6 7.3 84 1.3 NE 9 13 5 7 1029.8 1029.2 0.0
22/12:00am 10.0 7.7 7.4 84 1.3 NE 9 13 5 7 1030.2 1029.6 0.0
 
Date/Time
EDT
Temp
°C
App
Temp
°C
Dew
Point
Rel
Hum
%
Delta-T
°C
Wind Press
QNH
hPa
Press
MSL
hPa
Rain
since 9 am
mm
Dir
 
Spd
km/h
Gust
km/h
Spd
kts
Gust
kts
21/11:30pm 10.1 8.1 7.3 83 1.4 NE 7 11 4 6 1030.7 1030.0 0.0
21/11:00pm 10.1 7.8 7.3 83 1.4 NE 9 13 5 7 1030.8 1030.1 0.0
21/10:30pm 10.1 7.4 7.5 84 1.3 NE 11 15 6 8 1030.9 1030.3 0.0
21/10:00pm 10.2 7.1 7.4 83 1.4 ENE 13 17 7 9 1031.0 1030.4 0.0
21/09:30pm 10.2 6.8 7.6 84 1.3 ENE 15 19 8 10 1030.9 1030.3 0.0
21/09:00pm 10.1 7.1 7.9 86 1.1 E 13 17 7 9 1030.8 1030.1 0.0
21/08:30pm 10.1 6.4 7.9 86 1.1 ENE 17 24 9 13 1030.7 1030.0 0.0
21/08:00pm 10.2 7.9 7.6 84 1.3 ENE 9 17 5 9 1030.4 1029.8 0.0
21/07:30pm 10.3 8.0 7.5 83 1.4 E 9 13 5 7 1030.1 1029.5 0.0
21/07:00pm 10.5 7.9 7.9 84 1.3 E 11 15 6 8 1030.0 1029.4 0.0
21/06:30pm 10.9 8.8 8.1 83 1.4 ENE 9 13 5 7 1029.8 1029.2 0.0

Other Formats:

Comma delimited format used in spreadsheet applications
http://www.bom.gov.au/fwo/IDN60801/IDN60801.94943.axf

JavaScript Object Notation format (JSON) in row-major order
http://www.bom.gov.au/fwo/IDN60801/IDN60801.94943.json